Time;durP1;ratioP1;P1;durP2;ratioP2;P2;SDS_P1;SDS_P2;PMS_P1;PMS_P2;Temp;Humidity;BMP_temperature;BMP_pressure;BME280_temperature;BME280_humidity;BME280_pressure;Samples;Min_cycle;Max_cycle;Signal;HPM_P1;HPM_P2
2022/05/30 00:00:18;;;;;;;0.30;0.30;;;9.00;99.90;;;;;;5072150;28;20036;-74
2022/05/30 00:02:43;;;;;;;5.18;0.47;;;8.70;99.90;;;;;;5055441;28;20048;-74
2022/05/30 00:05:13;;;;;;;1.30;0.70;;;8.70;99.90;;;;;;5055196;28;20044;-74
2022/05/30 00:07:39;;;;;;;1.25;0.70;;;8.60;99.90;;;;;;5055153;28;20040;-74
2022/05/30 00:10:08;;;;;;;0.57;0.43;;;8.60;99.90;;;;;;5071683;28;20612;-74
2022/05/30 00:12:34;;;;;;;1.88;0.47;;;8.50;99.90;;;;;;5071661;28;20041;-74
2022/05/30 00:15:00;;;;;;;0.68;0.40;;;8.50;99.90;;;;;;5071759;28;20033;-74
2022/05/30 00:17:26;;;;;;;0.20;0.20;;;8.10;99.90;;;;;;5054857;28;20127;-74
2022/05/30 00:19:51;;;;;;;4.30;0.50;;;8.40;99.90;;;;;;5071632;28;20044;-74
2022/05/30 00:22:20;;;;;;;1.50;0.47;;;8.10;99.90;;;;;;5054891;28;20040;-74
2022/05/30 00:24:46;;;;;;;0.57;0.40;;;8.10;99.90;;;;;;5038305;28;20033;-74
2022/05/30 00:27:12;;;;;;;0.20;0.20;;;8.20;99.90;;;;;;5071548;28;20166;-74
2022/05/30 00:29:39;;;;;;;2.35;0.50;;;;;;;;;;5054902;28;20040;-74
2022/05/30 00:32:06;;;;;;;1.17;0.50;;;8.20;99.90;;;;;;5071741;28;20507;-74
2022/05/30 00:34:33;;;;;;;1.85;0.65;;;8.10;99.90;;;;;;5055031;28;20049;-74
2022/05/30 00:37:00;;;;;;;0.20;0.20;;;8.10;99.90;;;;;;5071952;28;20047;-74
2022/05/30 00:39:26;;;;;;;2.05;0.60;;;8.20;99.90;;;;;;5075830;28;20488;-74
2022/05/30 00:41:52;;;;;;;2.88;0.63;;;8.10;99.90;;;;;;5058905;28;20033;-73
2022/05/30 00:44:17;;;;;;;9.52;1.10;;;8.00;99.90;;;;;;5075454;28;20385;-73
2022/05/30 00:46:43;;;;;;;6.95;0.80;;;8.20;99.90;;;;;;5058645;28;20055;-74
2022/05/30 00:49:12;;;;;;;0.65;0.30;;;7.90;99.90;;;;;;5058629;28;20099;-74
2022/05/30 00:51:48;;;;;;;1.70;0.88;;;7.90;99.90;;;;;;5058828;28;20060;-73
2022/05/30 00:54:22;;;;;;;3.95;0.82;;;7.80;99.90;;;;;;5075087;28;20051;-73
2022/05/30 00:56:55;;;;;;;0.68;0.52;;;7.80;99.90;;;;;;5075181;28;20037;-74
2022/05/30 00:59:22;;;;;;;2.50;0.50;;;;;;;;;;5075095;28;20044;-74
2022/05/30 01:01:47;;;;;;;0.40;0.40;;;7.70;99.90;;;;;;5075307;28;20046;-74
2022/05/30 01:07:01;;;;;;;1.85;0.65;;;7.60;99.90;;;;;;5074913;28;20105;-73
2022/05/30 01:09:31;;;;;;;0.43;0.43;;;7.70;99.90;;;;;;5075180;28;20044;-74
2022/05/30 01:12:03;;;;;;;0.77;0.50;;;7.50;99.90;;;;;;5074839;28;20049;-73
2022/05/30 01:14:31;;;;;;;0.45;0.35;;;7.40;99.90;;;;;;5074810;28;20052;-73
2022/05/30 01:16:58;;;;;;;0.20;0.20;;;7.40;99.90;;;;;;5074574;28;20052;-73
2022/05/30 01:19:43;;;;;;;0.63;0.28;;;7.40;99.90;;;;;;5074678;28;20082;-73
2022/05/30 01:22:42;;;;;;;0.55;0.40;;;7.40;99.90;;;;;;5074652;28;20117;-74
2022/05/30 01:25:22;;;;;;;4.88;0.73;;;7.40;99.90;;;;;;5074648;28;20041;-73
2022/05/30 01:28:11;;;;;;;3.28;0.50;;;7.40;99.90;;;;;;5074617;28;20144;-74
2022/05/30 01:30:40;;;;;;;0.98;0.82;;;7.40;99.90;;;;;;5074752;28;20048;-73
2022/05/30 01:33:06;;;;;;;2.30;0.68;;;7.40;99.90;;;;;;5057754;28;20040;-73
2022/05/30 01:35:32;;;;;;;2.97;0.73;;;7.40;99.90;;;;;;5057685;28;20041;-73
2022/05/30 01:37:59;;;;;;;6.65;0.73;;;7.40;99.90;;;;;;5057873;28;20395;-74
2022/05/30 01:40:26;;;;;;;3.88;0.77;;;7.40;99.90;;;;;;5074541;28;20484;-73
2022/05/30 01:42:53;;;;;;;1.90;0.40;;;7.40;99.90;;;;;;5074297;28;20079;-74
2022/05/30 01:45:19;;;;;;;7.40;0.57;;;7.40;99.90;;;;;;5074331;28;20092;-74
2022/05/30 01:47:45;;;;;;;2.28;0.60;;;7.60;99.90;;;;;;5040421;28;20032;-73
2022/05/30 01:50:11;;;;;;;2.65;0.90;;;8.40;99.90;;;;;;5074376;28;20365;-74
2022/05/30 01:52:37;;;;;;;0.60;0.50;;;7.40;99.90;;;;;;5074384;28;20128;-73
2022/05/30 01:55:03;;;;;;;2.25;0.60;;;7.60;99.90;;;;;;5074129;28;20174;-74
2022/05/30 01:57:29;;;;;;;3.10;0.47;;;7.40;99.90;;;;;;5074044;28;20127;-73
2022/05/30 01:59:55;;;;;;;1.42;0.63;;;7.40;99.90;;;;;;5057750;28;20569;-74
2022/05/30 02:02:21;;;;;;;1.88;1.08;;;7.40;99.90;;;;;;5074346;28;20129;-70
2022/05/30 02:04:47;;;;;;;0.85;0.60;;;7.80;99.90;;;;;;5057424;28;20483;-70
2022/05/30 02:07:12;;;;;;;3.90;0.68;;;7.50;99.90;;;;;;5073952;28;20052;-70
2022/05/30 02:09:38;;;;;;;1.63;0.55;;;7.50;99.90;;;;;;5090723;28;20389;-70
2022/05/30 02:12:04;;;;;;;1.05;0.60;;;7.60;99.90;;;;;;5057308;28;20083;-70
2022/05/30 02:14:30;;;;;;;3.67;1.10;;;7.40;99.90;;;;;;5057381;28;20131;-70
2022/05/30 02:17:02;;;;;;;0.90;0.70;;;7.40;99.90;;;;;;5056656;28;20095;-70
2022/05/30 02:19:29;;;;;;;0.50;0.50;;;7.40;99.90;;;;;;5057956;28;20542;-69
2022/05/30 02:21:55;;;;;;;1.48;0.38;;;7.50;99.90;;;;;;5073778;28;20040;-70
2022/05/30 02:24:21;;;;;;;0.93;0.47;;;8.10;99.90;;;;;;5073529;28;20044;-69
2022/05/30 02:26:47;;;;;;;2.92;0.70;;;7.40;99.90;;;;;;5073608;28;20090;-70
2022/05/30 02:29:13;;;;;;;0.88;0.40;;;7.40;99.90;;;;;;5073308;28;20475;-70
2022/05/30 02:31:39;;;;;;;1.35;0.85;;;7.40;99.90;;;;;;5073591;28;20123;-69
2022/05/30 02:36:50;;;;;;;3.85;0.80;;;7.40;99.90;;;;;;5073209;28;20086;-69
2022/05/30 02:39:18;;;;;;;0.60;0.43;;;7.30;99.90;;;;;;5073145;28;20098;-69
2022/05/30 02:41:45;;;;;;;1.52;0.88;;;7.20;99.90;;;;;;5073127;28;20043;-69
2022/05/30 02:44:11;;;;;;;3.08;0.52;;;7.30;99.90;;;;;;5056593;28;20090;-69
2022/05/30 02:46:38;;;;;;;1.40;0.50;;;7.20;99.90;;;;;;5073005;28;20040;-69
2022/05/30 02:49:04;;;;;;;0.82;0.57;;;7.10;99.90;;;;;;5106713;28;20439;-70
2022/05/30 02:51:29;;;;;;;0.75;0.70;;;7.10;99.90;;;;;;5056391;28;20474;-70
2022/05/30 02:53:56;;;;;;;1.38;0.70;;;7.40;99.90;;;;;;5056184;28;20071;-70
2022/05/30 02:56:22;;;;;;;1.00;0.75;;;7.00;99.90;;;;;;5056110;28;20049;-69
2022/05/30 02:58:48;;;;;;;0.77;0.68;;;7.00;99.90;;;;;;5072727;28;20043;-69
2022/05/30 03:01:14;;;;;;;2.13;0.70;;;7.00;99.90;;;;;;5055463;28;20458;-69
2022/05/30 03:03:40;;;;;;;2.40;0.68;;;7.00;99.90;;;;;;5072742;28;20044;-70
2022/05/30 03:06:06;;;;;;;1.20;0.57;;;7.00;99.90;;;;;;5072825;28;20055;-70
2022/05/30 03:08:31;;;;;;;1.75;0.80;;;6.90;99.90;;;;;;5072630;28;20044;-69
2022/05/30 03:10:57;;;;;;;1.20;0.90;;;6.90;99.90;;;;;;5072573;28;20486;-69
2022/05/30 03:13:23;;;;;;;1.00;0.50;;;6.90;99.90;;;;;;5072477;28;20052;-69
2022/05/30 03:15:49;;;;;;;0.77;0.60;;;6.80;99.90;;;;;;5072221;28;20496;-69
2022/05/30 03:18:14;;;;;;;2.17;0.93;;;7.20;99.90;;;;;;5072826;28;20072;-69
2022/05/30 03:20:40;;;;;;;0.98;0.60;;;7.20;99.90;;;;;;5072680;28;20043;-69
2022/05/30 03:23:06;;;;;;;2.28;1.08;;;6.70;99.90;;;;;;5072240;28;20036;-69
2022/05/30 03:25:32;;;;;;;4.90;0.52;;;7.10;99.90;;;;;;5055584;28;20086;-70
2022/05/30 03:27:58;;;;;;;0.75;0.60;;;6.80;99.90;;;;;;5072458;28;20032;-69
2022/05/30 03:30:24;;;;;;;0.77;0.65;;;7.30;99.90;;;;;;5055841;28;20080;-69
2022/05/30 03:32:50;;;;;;;0.60;0.60;;;6.60;99.90;;;;;;5072167;28;20044;-69
2022/05/30 03:35:16;;;;;;;2.20;1.10;;;6.60;99.90;;;;;;5072049;28;20051;-69
2022/05/30 03:37:43;;;;;;;1.77;0.98;;;6.60;99.90;;;;;;5072078;28;20100;-69
2022/05/30 03:40:12;;;;;;;2.95;1.02;;;6.60;99.90;;;;;;5055313;28;20090;-69
2022/05/30 03:42:38;;;;;;;1.13;0.73;;;6.60;99.90;;;;;;5072185;28;20109;-69
2022/05/30 03:45:05;;;;;;;0.50;0.50;;;6.60;99.90;;;;;;5055366;28;20036;-69
2022/05/30 03:47:42;;;;;;;3.72;0.80;;;6.60;99.90;;;;;;5072019;28;20082;-69
2022/05/30 03:50:15;;;;;;;2.15;1.10;;;6.60;99.90;;;;;;5055185;28;20044;-69
2022/05/30 03:52:40;;;;;;;2.70;0.32;;;6.60;99.90;;;;;;5106039;28;20422;-69
2022/05/30 03:55:13;;;;;;;1.77;0.80;;;6.60;99.90;;;;;;5055085;28;20127;-69
2022/05/30 03:57:43;;;;;;;2.33;1.08;;;6.60;99.90;;;;;;5071834;28;20048;-70
2022/05/30 04:00:11;;;;;;;2.08;0.75;;;6.60;99.90;;;;;;5055546;28;20040;-70
2022/05/30 04:02:38;;;;;;;0.68;0.68;;;6.70;99.90;;;;;;5055387;28;20037;-70
2022/05/30 04:05:04;;;;;;;0.93;0.50;;;6.50;99.90;;;;;;5105463;28;20032;-69
2022/05/30 04:07:30;;;;;;;3.45;1.05;;;6.80;99.90;;;;;;5071965;28;20044;-69
2022/05/30 04:09:56;;;;;;;1.10;0.70;;;6.80;99.90;;;;;;5071711;28;20101;-69
2022/05/30 04:12:22;;;;;;;2.05;0.93;;;7.20;99.90;;;;;;5071523;28;20040;-69
2022/05/30 04:14:56;;;;;;;2.53;1.13;;;6.80;99.90;;;;;;5071579;28;20123;-69
2022/05/30 04:17:23;;;;;;;1.77;0.85;;;7.20;99.90;;;;;;5054759;28;20045;-69
2022/05/30 04:19:48;;;;;;;4.85;0.70;;;6.70;99.90;;;;;;5088330;28;20040;-69
2022/05/30 04:22:15;;;;;;;0.82;0.55;;;6.90;99.90;;;;;;5071531;28;20040;-69
2022/05/30 04:24:41;;;;;;;0.85;0.55;;;6.90;99.90;;;;;;5071825;28;20478;-69
2022/05/30 04:27:06;;;;;;;1.98;0.70;;;6.90;99.90;;;;;;5071440;28;20075;-70
2022/05/30 04:29:32;;;;;;;1.95;0.50;;;6.90;99.90;;;;;;5054809;28;20240;-69
2022/05/30 04:32:00;;;;;;;1.45;0.75;;;7.00;99.90;;;;;;5055004;28;20076;-69
2022/05/30 04:34:25;;;;;;;3.63;0.75;;;7.00;99.90;;;;;;5071414;28;20044;-69
2022/05/30 04:36:51;;;;;;;0.68;0.55;;;7.00;99.90;;;;;;5071362;28;20041;-69
2022/05/30 04:39:17;;;;;;;1.27;0.85;;;7.70;99.90;;;;;;5054658;28;20065;-69
2022/05/30 04:41:42;;;;;;;1.95;1.10;;;7.00;99.90;;;;;;5071344;28;20041;-69
2022/05/30 04:44:08;;;;;;;3.30;1.02;;;7.00;99.90;;;;;;5054644;28;20190;-69
2022/05/30 04:46:34;;;;;;;1.00;0.90;;;7.20;99.90;;;;;;5054656;28;20047;-70
2022/05/30 04:49:00;;;;;;;1.02;0.90;;;7.20;99.90;;;;;;5054483;28;20408;-70
2022/05/30 04:51:26;;;;;;;0.95;0.70;;;7.30;99.90;;;;;;5054901;28;20044;-70
2022/05/30 04:53:52;;;;;;;1.65;0.70;;;7.30;99.90;;;;;;5071268;28;20047;-69
2022/05/30 04:56:19;;;;;;;0.93;0.82;;;7.40;99.90;;;;;;5037987;28;20040;-69
2022/05/30 04:58:46;;;;;;;2.17;0.93;;;7.50;99.90;;;;;;5054511;28;20502;-69
2022/05/30 05:01:12;;;;;;;0.70;0.50;;;7.50;99.90;;;;;;5054661;28;20076;-69
2022/05/30 05:03:40;;;;;;;0.60;0.55;;;7.50;99.90;;;;;;5054739;28;20451;-69
2022/05/30 05:06:12;;;;;;;4.45;0.65;;;8.10;99.90;;;;;;5071163;28;20045;-69
2022/05/30 05:08:43;;;;;;;1.85;0.90;;;7.60;99.90;;;;;;5071153;28;20488;-69
2022/05/30 05:11:12;;;;;;;;;;;7.60;99.90;;;;;;5071780;28;20548;-69
2022/05/30 05:13:37;;;;;;;1.13;0.77;;;7.60;99.90;;;;;;5071044;28;19916;-69
2022/05/30 05:16:03;;;;;;;1.30;0.50;;;7.70;99.90;;;;;;5054071;28;20052;-69
2022/05/30 05:18:29;;;;;;;1.23;0.77;;;7.70;99.90;;;;;;5070947;28;20076;-69
2022/05/30 05:20:55;;;;;;;0.90;0.73;;;7.80;99.90;;;;;;5054377;28;20460;-69
2022/05/30 05:23:21;;;;;;;1.02;0.73;;;7.60;99.90;;;;;;5055360;28;20040;-69
2022/05/30 05:25:46;;;;;;;0.95;0.70;;;7.90;99.90;;;;;;5074911;28;20540;-70
2022/05/30 05:28:12;;;;;;;1.27;0.68;;;8.00;99.90;;;;;;5074506;28;20696;-70
2022/05/30 05:30:41;;;;;;;1.13;0.63;;;8.10;99.90;;;;;;5074677;28;20040;-70
2022/05/30 05:33:07;;;;;;;1.02;0.70;;;8.20;99.90;;;;;;5074389;28;20098;-70
2022/05/30 05:35:34;;;;;;;1.73;0.60;;;;;;;;;;5074597;28;20510;-70
2022/05/30 05:38:00;;;;;;;6.90;0.75;;;8.20;99.90;;;;;;5074351;28;20036;-70
2022/05/30 05:40:30;;;;;;;4.38;0.88;;;8.70;99.90;;;;;;5041476;28;20056;-70
2022/05/30 05:42:55;;;;;;;1.52;0.80;;;9.00;99.90;;;;;;5074315;28;20104;-70
2022/05/30 05:45:21;;;;;;;2.72;0.60;;;9.00;99.90;;;;;;5074276;28;20053;-70
2022/05/30 05:47:47;;;;;;;2.45;0.80;;;8.90;99.90;;;;;;5057514;28;20404;-69
2022/05/30 05:50:13;;;;;;;1.45;0.75;;;8.60;99.90;;;;;;5057517;28;20127;-68
2022/05/30 05:52:38;;;;;;;3.95;0.80;;;8.70;99.90;;;;;;5074465;28;20381;-67
2022/05/30 05:55:05;;;;;;;1.95;0.60;;;8.80;99.90;;;;;;5074397;28;20044;-69
2022/05/30 05:57:30;;;;;;;1.13;0.50;;;8.90;99.90;;;;;;5074014;28;20072;-68
2022/05/30 05:59:56;;;;;;;1.48;0.90;;;8.90;99.90;;;;;;5057371;28;20428;-68
2022/05/30 06:02:23;;;;;;;0.82;0.50;;;8.90;99.90;;;;;;5057267;28;20438;-69
2022/05/30 06:04:52;;;;;;;1.13;0.50;;;9.10;99.90;;;;;;5057346;28;20048;-69
2022/05/30 06:07:18;;;;;;;0.98;0.50;;;9.20;99.90;;;;;;5074058;28;20045;-69
2022/05/30 06:09:44;;;;;;;0.98;0.85;;;9.40;99.90;;;;;;5074071;28;20036;-70
2022/05/30 06:12:10;;;;;;;1.65;0.45;;;9.40;99.90;;;;;;5057044;28;20051;-69
2022/05/30 06:14:36;;;;;;;1.52;0.90;;;9.50;99.90;;;;;;5073665;28;20063;-70
2022/05/30 06:17:03;;;;;;;1.55;0.60;;;9.60;99.90;;;;;;5073204;28;20060;-70
2022/05/30 06:19:29;;;;;;;1.25;0.60;;;9.70;99.90;;;;;;5073921;28;20539;-70
2022/05/30 06:21:54;;;;;;;0.43;0.43;;;9.80;99.90;;;;;;5056882;28;20071;-70
2022/05/30 06:24:20;;;;;;;5.30;0.85;;;9.80;99.90;;;;;;5056969;28;20150;-70
2022/05/30 06:26:46;;;;;;;0.35;0.30;;;10.00;99.90;;;;;;5056747;28;20132;-70
2022/05/30 06:29:15;;;;;;;0.85;0.45;;;10.10;99.90;;;;;;5056888;28;20040;-70
2022/05/30 06:31:40;;;;;;;0.20;0.20;;;10.20;99.90;;;;;;5073190;28;20102;-70
2022/05/30 06:34:07;;;;;;;0.40;0.40;;;11.50;99.90;;;;;;5039855;28;20068;-70
2022/05/30 06:36:34;;;;;;;0.40;0.40;;;10.60;99.90;;;;;;5056420;28;20044;-70
2022/05/30 06:39:03;;;;;;;0.63;0.40;;;11.80;99.90;;;;;;5073093;28;20032;-69
2022/05/30 06:41:31;;;;;;;1.48;0.52;;;11.10;99.90;;;;;;5073019;28;20393;-69
2022/05/30 06:44:04;;;;;;;0.45;0.30;;;11.40;99.90;;;;;;5056174;28;20055;-70
2022/05/30 06:46:32;;;;;;;0.55;0.28;;;11.50;99.90;;;;;;5056523;28;20090;-70
2022/05/30 06:48:59;;;;;;;0.22;0.22;;;11.60;99.90;;;;;;5056514;28;20044;-70
2022/05/30 06:51:27;;;;;;;0.25;0.25;;;11.80;99.90;;;;;;5072826;28;20086;-69
2022/05/30 06:53:54;;;;;;;0.30;0.30;;;11.40;99.90;;;;;;5073115;28;20043;-70
2022/05/30 06:56:22;;;;;;;0.68;0.28;;;11.50;99.90;;;;;;5039469;28;20040;-69
2022/05/30 06:58:53;;;;;;;0.20;0.20;;;11.40;99.90;;;;;;5072704;28;20037;-69
2022/05/30 07:01:21;;;;;;;0.43;0.30;;;11.50;99.90;;;;;;5056594;28;20128;-69
2022/05/30 07:03:47;;;;;;;0.28;0.25;;;11.60;99.90;;;;;;5056189;28;20774;-70
2022/05/30 07:06:16;;;;;;;0.30;0.30;;;11.50;99.90;;;;;;5072453;28;20051;-70
2022/05/30 07:08:46;;;;;;;0.47;0.40;;;11.50;99.90;;;;;;5072451;28;20041;-70
2022/05/30 07:11:13;;;;;;;0.30;0.22;;;11.50;99.90;;;;;;5055817;28;20042;-69
2022/05/30 07:13:39;;;;;;;0.98;0.50;;;11.50;99.90;;;;;;5072941;28;20052;-70
2022/05/30 07:16:06;;;;;;;0.55;0.32;;;11.40;99.90;;;;;;5072325;28;20102;-70
2022/05/30 07:18:32;;;;;;;1.67;0.40;;;11.40;99.90;;;;;;5055712;28;20407;-70
2022/05/30 07:21:06;;;;;;;0.57;0.40;;;11.70;99.90;;;;;;5072513;28;20040;-69
2022/05/30 07:23:33;;;;;;;0.80;0.30;;;11.90;99.90;;;;;;5072224;28;20047;-69
2022/05/30 07:26:06;;;;;;;1.20;0.40;;;11.90;99.90;;;;;;5055721;28;20403;-70
2022/05/30 07:28:32;;;;;;;0.47;0.47;;;;;;;;;;5072143;28;20075;-70
2022/05/30 07:31:13;;;;;;;0.63;0.30;;;12.40;99.90;;;;;;5072066;28;20044;-70
2022/05/30 07:33:41;;;;;;;0.20;0.20;;;12.40;99.90;;;;;;5072281;28;20399;-70
2022/05/30 07:36:13;;;;;;;0.77;0.20;;;12.70;99.90;;;;;;5071991;28;20037;-70
2022/05/30 07:38:40;;;;;;;2.00;0.70;;;12.80;99.90;;;;;;5039566;28;20036;-70
2022/05/30 07:41:06;;;;;;;0.63;0.35;;;12.80;99.90;;;;;;5072147;28;20033;-70
2022/05/30 07:43:32;;;;;;;0.68;0.32;;;13.00;99.90;;;;;;5055520;28;20067;-70
2022/05/30 07:46:03;;;;;;;0.50;0.30;;;12.70;99.90;;;;;;5071683;28;20125;-70
2022/05/30 07:48:29;;;;;;;0.20;0.20;;;;;;;;;;5071927;28;20075;-70
2022/05/30 07:51:00;;;;;;;0.65;0.30;;;12.80;99.90;;;;;;5071875;28;20044;-70
2022/05/30 07:53:26;;;;;;;0.30;0.30;;;12.70;99.90;;;;;;5071902;28;20048;-70
2022/05/30 07:55:52;;;;;;;0.52;0.30;;;12.70;99.90;;;;;;5071820;28;20586;-70
2022/05/30 07:58:17;;;;;;;0.38;0.20;;;12.60;99.90;;;;;;5038446;28;20124;-70
2022/05/30 08:00:43;;;;;;;1.85;0.40;;;12.50;99.90;;;;;;5071707;28;20430;-70
2022/05/30 08:03:11;;;;;;;0.25;0.25;;;12.50;99.90;;;;;;5055080;28;20042;-70
2022/05/30 08:05:39;;;;;;;0.32;0.20;;;12.30;99.90;;;;;;5054966;28;20040;-70
2022/05/30 08:08:06;;;;;;;0.95;0.38;;;12.50;99.90;;;;;;5071909;28;20405;-70
2022/05/30 08:10:32;;;;;;;0.55;0.30;;;12.20;99.90;;;;;;5071698;28;20052;-70
2022/05/30 08:12:57;;;;;;;1.30;0.30;;;12.30;99.90;;;;;;5071673;28;20059;-70
2022/05/30 08:15:24;;;;;;;0.20;0.20;;;12.50;99.90;;;;;;5055506;28;20037;-70
2022/05/30 08:17:54;;;;;;;0.60;0.30;;;12.90;99.90;;;;;;5071564;28;20049;-70
2022/05/30 08:20:19;;;;;;;0.30;0.30;;;13.50;99.90;;;;;;5071826;28;20032;-70
2022/05/30 08:22:45;;;;;;;1.00;0.32;;;;;;;;;;5071542;28;20293;-70
2022/05/30 08:25:14;;;;;;;0.38;0.30;;;;;;;;;;5071584;28;20036;-71
2022/05/30 08:27:42;;;;;;;0.30;0.25;;;;;;;;;;5071596;28;20040;-70
2022/05/30 08:30:08;;;;;;;0.20;0.20;;;;;;;;;;5038427;28;20051;-70
2022/05/30 08:32:35;;;;;;;2.05;0.65;;;;;;;;;;5071496;28;20044;-70
2022/05/30 08:35:03;;;;;;;1.25;0.28;;;;;;;;;;5071565;28;20480;-70
2022/05/30 08:37:30;;;;;;;0.32;0.30;;;;;;;;;;5071444;28;20036;-71
2022/05/30 08:42:49;;;;;;;1.02;0.52;;;12.50;99.90;;;;;;5071266;28;20125;-70
2022/05/30 08:45:17;;;;;;;0.45;0.28;;;12.20;99.90;;;;;;5054639;28;20521;-70
2022/05/30 08:47:54;;;;;;;0.30;0.30;;;12.20;99.90;;;;;;5071169;28;20465;-70
2022/05/30 08:50:26;;;;;;;0.30;0.30;;;12.10;99.90;;;;;;5071348;28;20056;-71
2022/05/30 08:53:22;;;;;;;0.10;0.10;;;12.00;99.90;;;;;;5071178;28;20048;-71
2022/05/30 08:55:56;;;;;;;1.55;0.43;;;11.90;99.90;;;;;;5070954;28;20090;-71
2022/05/30 08:58:43;;;;;;;3.00;0.40;;;12.60;99.90;;;;;;5072434;28;20032;-71
2022/05/30 09:01:17;;;;;;;0.30;0.30;;;12.00;99.90;;;;;;5074898;28;20105;-70
2022/05/30 09:04:16;;;;;;;1.25;0.43;;;12.00;99.90;;;;;;5074821;28;20086;-70
2022/05/30 09:07:04;;;;;;;0.85;0.50;;;12.00;99.90;;;;;;5075104;28;20055;-70
2022/05/30 09:09:50;;;;;;;0.50;0.28;;;11.90;99.90;;;;;;5074797;28;20086;-71
2022/05/30 09:12:28;;;;;;;0.30;0.30;;;12.00;99.90;;;;;;5074686;28;20050;-70
2022/05/30 09:15:17;;;;;;;0.98;0.30;;;12.20;99.90;;;;;;5074676;28;20067;-71
2022/05/30 09:17:54;;;;;;;0.30;0.30;;;12.70;99.90;;;;;;5073926;28;20057;-71
2022/05/30 09:20:23;;;;;;;0.30;0.30;;;13.40;99.90;;;;;;5057940;28;20044;-71
2022/05/30 09:22:49;;;;;;;0.25;0.22;;;13.20;99.90;;;;;;5057882;28;20052;-71
2022/05/30 09:28:05;;;;;;;0.20;0.20;;;13.50;99.90;;;;;;5055392;28;20150;-71
2022/05/30 09:30:43;;;;;;;0.30;0.30;;;13.60;99.90;;;;;;5057661;28;20454;-70
2022/05/30 09:33:27;;;;;;;3.95;0.30;;;13.70;99.90;;;;;;5074280;28;20048;-70
2022/05/30 09:36:17;;;;;;;0.20;0.20;;;13.20;99.90;;;;;;5074161;28;20062;-70
2022/05/30 09:38:50;;;;;;;0.28;0.20;;;13.10;99.90;;;;;;5057602;28;20051;-71
2022/05/30 09:41:39;;;;;;;1.08;0.30;;;12.70;99.90;;;;;;5074694;28;20041;-70
2022/05/30 09:44:45;;;;;;;0.35;0.28;;;12.70;99.90;;;;;;5068874;28;20102;-70
2022/05/30 09:47:17;;;;;;;1.17;0.20;;;12.40;99.90;;;;;;5073529;28;20048;-71
2022/05/30 09:49:48;;;;;;;3.63;0.30;;;12.00;99.90;;;;;;5057317;28;20048;-72
2022/05/30 09:52:33;;;;;;;0.17;0.17;;;11.50;99.90;;;;;;5057820;28;20048;-71
2022/05/30 09:54:59;;;;;;;0.40;0.32;;;11.60;99.90;;;;;;5057286;28;20045;-71
2022/05/30 09:57:27;;;;;;;0.82;0.30;;;11.60;99.90;;;;;;5074003;28;20044;-71
2022/05/30 09:59:55;;;;;;;0.20;0.20;;;11.40;99.90;;;;;;5057621;28;20048;-71
2022/05/30 10:02:31;;;;;;;0.20;0.20;;;11.30;99.90;;;;;;5074001;28;20123;-71
2022/05/30 10:05:02;;;;;;;0.47;0.30;;;11.30;99.90;;;;;;5073747;28;20503;-71
2022/05/30 10:07:29;;;;;;;0.32;0.22;;;11.30;99.90;;;;;;5073757;28;20045;-71
2022/05/30 10:10:00;;;;;;;0.88;0.40;;;11.40;99.90;;;;;;5073376;28;20354;-71
2022/05/30 10:12:39;;;;;;;1.05;0.40;;;11.30;99.90;;;;;;5073961;28;20055;-71
2022/05/30 10:15:26;;;;;;;2.75;0.75;;;11.30;99.90;;;;;;5073869;28;20036;-70
2022/05/30 10:17:55;;;;;;;0.60;0.50;;;11.30;99.90;;;;;;5073558;28;20069;-70
2022/05/30 10:20:47;;;;;;;0.40;0.30;;;11.20;99.90;;;;;;5073532;28;20385;-71
2022/05/30 10:29:51;;;;;;;0.10;0.10;;;11.10;99.90;;;;;;5038186;28;20049;-70
2022/05/30 10:32:36;;;;;;;0.20;0.20;;;11.10;99.90;;;;;;5073309;28;20075;-72
2022/05/30 10:35:27;;;;;;;0.17;0.17;;;11.10;99.90;;;;;;5073506;28;20084;-70
2022/05/30 10:38:19;;;;;;;0.10;0.10;;;11.20;99.90;;;;;;5073457;28;20057;-69
2022/05/30 10:40:54;;;;;;;0.40;0.38;;;11.40;99.90;;;;;;5073539;28;20088;-70
2022/05/30 10:43:28;;;;;;;0.15;0.15;;;11.50;99.90;;;;;;5073119;28;20056;-70
2022/05/30 10:46:07;;;;;;;0.10;0.10;;;11.60;99.90;;;;;;5073066;28;20052;-70
2022/05/30 10:49:03;;;;;;;0.10;0.10;;;11.70;99.90;;;;;;5074275;28;20055;-71
2022/05/30 10:51:36;;;;;;;0.10;0.10;;;11.80;99.90;;;;;;5106925;28;20036;-71
2022/05/30 10:54:19;;;;;;;0.28;0.28;;;11.90;99.90;;;;;;5056180;28;20048;-70
2022/05/30 10:56:49;;;;;;;4.38;0.20;;;12.00;99.90;;;;;;5106476;28;20045;-69
2022/05/30 10:59:36;;;;;;;0.30;0.20;;;12.00;99.90;;;;;;5072701;28;20048;-70
2022/05/30 11:02:27;;;;;;;0.10;0.10;;;12.30;99.90;;;;;;5056335;28;20044;-70
2022/05/30 11:04:52;;;;;;;0.10;0.10;;;12.50;99.90;;;;;;5072662;28;20140;-70
2022/05/30 11:07:42;;;;;;;0.20;0.20;;;12.40;99.90;;;;;;5056303;28;20135;-69
2022/05/30 11:10:35;;;;;;;0.20;0.20;;;12.40;99.90;;;;;;5072547;28;20041;-69
2022/05/30 11:13:21;;;;;;;0.10;0.10;;;12.70;99.90;;;;;;5073717;28;20036;-70
2022/05/30 11:15:51;;;;;;;0.10;0.10;;;12.70;99.90;;;;;;5055570;28;20103;-70
2022/05/30 11:18:54;;;;;;;0.35;0.30;;;12.80;99.90;;;;;;5055534;28;20053;-70
2022/05/30 11:21:37;;;;;;;0.13;0.13;;;13.00;99.90;;;;;;5071867;28;20391;-69
2022/05/30 11:24:05;;;;;;;0.15;0.15;;;13.00;99.90;;;;;;5072118;28;20048;-70
2022/05/30 11:26:52;;;;;;;0.10;0.10;;;13.00;99.90;;;;;;5072159;28;20044;-70
2022/05/30 11:29:37;;;;;;;0.20;0.20;;;13.00;99.90;;;;;;5072363;28;20518;-70
2022/05/30 11:32:12;;;;;;;0.10;0.10;;;13.00;99.90;;;;;;5072055;28;20044;-69
2022/05/30 11:34:56;;;;;;;0.20;0.20;;;13.20;99.90;;;;;;5055439;28;20105;-70
2022/05/30 11:37:25;;;;;;;1.95;0.30;;;13.20;99.90;;;;;;5071902;28;20036;-70
2022/05/30 11:40:22;;;;;;;0.20;0.20;;;13.40;99.90;;;;;;5055626;28;20127;-69
2022/05/30 11:43:06;;;;;;;0.55;0.25;;;13.50;99.90;;;;;;5055309;28;20051;-70
2022/05/30 11:45:54;;;;;;;0.20;0.20;;;13.50;99.90;;;;;;5072225;28;20047;-70
2022/05/30 11:48:38;;;;;;;0.20;0.20;;;13.40;99.90;;;;;;5071858;28;20044;-70
2022/05/30 11:51:29;;;;;;;0.32;0.20;;;13.40;99.90;;;;;;5071881;28;20044;-69
2022/05/30 11:54:36;;;;;;;1.17;0.43;;;13.00;99.90;;;;;;5055173;28;20052;-70
2022/05/30 11:57:20;;;;;;;0.22;0.22;;;12.90;99.90;;;;;;5071692;28;20396;-70
2022/05/30 12:00:08;;;;;;;0.22;0.22;;;12.80;99.90;;;;;;5055020;28;20098;-69
2022/05/30 12:02:58;;;;;;;0.30;0.30;;;12.70;99.90;;;;;;5071689;28;20036;-70
2022/05/30 12:05:38;;;;;;;0.10;0.10;;;12.60;99.90;;;;;;5071965;28;20124;-69
2022/05/30 12:08:23;;;;;;;0.20;0.20;;;12.30;99.90;;;;;;5071698;28;20051;-69
2022/05/30 12:10:51;;;;;;;0.20;0.20;;;12.20;99.90;;;;;;5071611;28;20082;-70
2022/05/30 12:14:09;;;;;;;0.10;0.10;;;11.90;99.90;;;;;;5071823;28;20036;-69
2022/05/30 12:16:40;;;;;;;1.27;0.20;;;11.80;99.90;;;;;;5054508;28;20045;-69
2022/05/30 12:24:49;;;;;;;0.15;0.15;;;12.10;99.90;;;;;;5071515;28;20045;-70
2022/05/30 12:27:30;;;;;;;0.30;0.30;;;11.60;99.90;;;;;;5055180;28;20036;-69
2022/05/30 12:29:57;;;;;;;0.20;0.20;;;11.80;99.90;;;;;;5071555;28;20149;-70
2022/05/30 12:32:24;;;;;;;0.20;0.20;;;11.80;99.90;;;;;;5072723;28;20044;-70
2022/05/30 12:35:05;;;;;;;0.15;0.15;;;11.80;99.90;;;;;;5075602;28;20044;-70
2022/05/30 12:37:49;;;;;;;0.30;0.30;;;11.90;99.90;;;;;;5058818;28;20083;-69
2022/05/30 12:40:24;;;;;;;1.30;0.20;;;12.00;99.90;;;;;;5075395;28;20056;-70
2022/05/30 12:43:15;;;;;;;0.38;0.20;;;11.90;99.90;;;;;;5075475;28;20169;-70
2022/05/30 12:45:50;;;;;;;;;;;12.00;99.90;;;;;;5076121;28;20581;-70
2022/05/30 12:48:20;;;;;;;0.30;0.30;;;12.20;99.90;;;;;;5075320;28;19916;-70
2022/05/30 12:50:52;;;;;;;0.35;0.20;;;12.30;99.90;;;;;;5058641;28;20536;-70
2022/05/30 12:53:24;;;;;;;3.80;0.30;;;12.40;99.90;;;;;;5075421;28;20372;-70
2022/05/30 12:55:52;;;;;;;0.20;0.20;;;12.70;99.90;;;;;;5075185;28;20044;-70
2022/05/30 12:58:37;;;;;;;0.20;0.20;;;12.60;99.90;;;;;;5058483;28;20044;-70
2022/05/30 13:01:19;;;;;;;0.20;0.20;;;12.80;99.90;;;;;;5075344;28;20495;-70
2022/05/30 13:04:01;;;;;;;0.20;0.20;;;13.80;99.90;;;;;;5074967;28;20040;-70
2022/05/30 13:06:29;;;;;;;0.40;0.30;;;13.10;99.90;;;;;;5060686;28;20139;-70
2022/05/30 13:09:11;;;;;;;0.20;0.20;;;13.20;99.90;;;;;;5058508;28;20063;-69
2022/05/30 13:11:52;;;;;;;0.35;0.20;;;;;;;;;;5074987;28;20044;-70
2022/05/30 13:14:24;;;;;;;0.32;0.28;;;;;;;;;;5074650;28;20044;-70
2022/05/30 13:16:52;;;;;;;0.57;0.25;;;14.00;99.90;;;;;;5074567;28;20399;-70
2022/05/30 13:19:17;;;;;;;0.45;0.30;;;14.50;99.90;;;;;;5074602;28;20056;-70
2022/05/30 13:21:49;;;;;;;0.15;0.15;;;13.90;99.90;;;;;;5058519;28;20049;-70
2022/05/30 13:24:29;;;;;;;0.25;0.25;;;;;;;;;;5057851;28;20037;-70
2022/05/30 13:26:56;;;;;;;0.30;0.30;;;14.50;99.90;;;;;;5058145;28;20041;-70
2022/05/30 13:29:35;;;;;;;1.35;0.50;;;14.70;99.90;;;;;;5074979;28;20072;-70
2022/05/30 13:32:04;;;;;;;0.68;0.40;;;14.50;99.90;;;;;;5074332;28;20087;-70
2022/05/30 13:34:32;;;;;;;2.03;0.60;;;14.70;99.90;;;;;;5057736;28;20041;-70
2022/05/30 13:37:00;;;;;;;0.30;0.20;;;15.10;99.90;;;;;;5057588;28;20041;-70
2022/05/30 13:39:27;;;;;;;1.67;0.30;;;15.30;99.90;;;;;;5057930;28;20040;-70
2022/05/30 13:41:53;;;;;;;0.77;0.40;;;15.30;99.90;;;;;;5074211;28;20056;-70